Darstellungsparameter: Aktuell verwendete Einstellungen:
Skalierung der Graphiken ... ?
xyx+y,   Skalierungsfaktor:      Skalierung: Modus: x, Faktor: 1
Darstellungszeitraum ... ?
Vom - - bis: - -   Zeitraum: 04.11.2008 - 10.11.2008
Min/Max/Avg-Anzeige ... ?
Zeige MMA aktuell
Zeige MMA Monat
Zeige MMA alles
Zeige --A aktuell
Zeige --A Monat
Zeige --A alles
Keine MMA-Anzeige
MMA:
Average (ber die Originaldaten)
MMA-Basis: 17.04.2019 - 19.05.2019
Quicknavigation für Darstellung... ?
Tage:      1T, 2T, 3T, 5T -1T -2T -3T -5T +1T +2T +3T +5T
Wochen: 1W, 2W, 3W -1W -2W -3W +1W +2W +3W
Monate: 1M, 3M, 6M -1M -3M -6M +1M +3M +6M
Jahre:    1J, 3J, 5J, 10J -1J -3J -5J -10J +1J +3J +5J +10J
Nutze für die Darstellung ... ?
Originaldaten oder Mittelwerte auf ...
Stundenbasis Tagesbasis Wochenbasis
Monatsbasis Jahresbasis      Datenbasis: Original-Daten
Darstellen als:
Statistik (Auto) Statistik J:M      Darstellung:
Zur Graphik,    zurück zur Übersicht aller Sensoren.
 
Tabellarische Datenbersicht: ?
 
Sensor: Nr:Datum:Temp:Abs-Feuchte:Windchill:Wind:
Aussen-T/F 1 04-11-2008 00:16:28 6.9 C 7.31 g/m*3 6.9 C 0 km/h
2 04-11-2008 00:41:28 6.7 C 7.22 g/m*3 6.7 C 0 km/h
3 04-11-2008 01:06:28 6.8 C 7.27 g/m*3 6.8 C 0 km/h
4 04-11-2008 01:31:28 6.8 C 7.27 g/m*3 6.8 C 0 km/h
5 04-11-2008 01:56:28 6.6 C 7.17 g/m*3 6.6 C 0 km/h
6 04-11-2008 02:21:28 6.5 C 7.12 g/m*3 6.5 C 0 km/h
7 04-11-2008 02:46:28 6.7 C 7.22 g/m*3 6.7 C 0 km/h
8 04-11-2008 03:11:28 6.8 C 7.27 g/m*3 6.8 C 0 km/h
9 04-11-2008 03:36:28 6.8 C 7.27 g/m*3 6.8 C 0 km/h
10 04-11-2008 04:01:28 6.8 C 7.27 g/m*3 6.8 C 0 km/h
11 04-11-2008 04:26:28 6.7 C 7.22 g/m*3 6.7 C 0 km/h
12 04-11-2008 04:51:28 6.8 C 7.27 g/m*3 6.8 C 0 km/h
13 04-11-2008 05:16:28 6.4 C 7.08 g/m*3 6.4 C 0 km/h
14 04-11-2008 05:41:28 6.3 C 7.03 g/m*3 6.3 C 0 km/h
15 04-11-2008 06:06:28 6.2 C 6.99 g/m*3 6.2 C 0 km/h
16 04-11-2008 06:31:28 6.3 C 7.03 g/m*3 6.3 C 0 km/h
17 04-11-2008 06:56:28 6.4 C 7.08 g/m*3 6.4 C 0 km/h
18 04-11-2008 07:21:29 6.4 C 7.08 g/m*3 6.4 C 0 km/h
19 04-11-2008 07:46:29 6.5 C 7.12 g/m*3 6.5 C 0 km/h
20 04-11-2008 08:11:29 6.6 C 7.17 g/m*3 6.6 C 0 km/h
21 04-11-2008 08:36:29 6.6 C 7.17 g/m*3 6.6 C 0 km/h
22 04-11-2008 09:01:29 6.9 C 7.31 g/m*3 6.9 C 0 km/h
23 04-11-2008 09:26:29 7.4 C 7.55 g/m*3 7.4 C 0 km/h
24 04-11-2008 09:51:29 7.7 C 7.7 g/m*3 7.7 C 0 km/h
25 04-11-2008 10:16:29 8.1 C 7.9 g/m*3 8.1 C 0 km/h
Sensor: Nr:Datum:Temp:Abs-Feuchte:Windchill:Wind:
Aussen-T/F 26 04-11-2008 10:41:29 7.8 C 7.75 g/m*3 7.8 C 0 km/h
27 04-11-2008 11:06:29 8.5 C 8.03 g/m*3 8.5 C 0 km/h
28 04-11-2008 11:31:29 9 C 8.11 g/m*3 9 C 0 km/h
29 04-11-2008 11:56:29 9 C 7.93 g/m*3 9 C 0 km/h
30 04-11-2008 12:21:29 9.1 C 7.81 g/m*3 9.1 C 0 km/h
31 04-11-2008 12:46:29 9.7 C 8.11 g/m*3 9.7 C 0 km/h
32 04-11-2008 13:11:29 12 C 8.85 g/m*3 12 C 0 km/h
33 04-11-2008 13:36:29 13.7 C 8.05 g/m*3 13.7 C 0 km/h
34 04-11-2008 14:01:29 14.5 C 8.46 g/m*3 14.5 C 0 km/h
35 04-11-2008 14:26:29 14.4 C 8.41 g/m*3 14.4 C 0 km/h
36 04-11-2008 14:51:29 14.4 C 8.41 g/m*3 14.4 C 0 km/h
37 04-11-2008 15:16:30 13.9 C 8.51 g/m*3 13.9 C 0 km/h
38 04-11-2008 15:41:30 13.4 C 8.49 g/m*3 13.4 C 0 km/h
39 04-11-2008 16:06:30 12.8 C 8.4 g/m*3 12.8 C 0 km/h
40 04-11-2008 16:31:30 12.1 C 8.36 g/m*3 12.1 C 0 km/h
41 04-11-2008 16:56:30 11.8 C 8.21 g/m*3 11.8 C 0 km/h
42 04-11-2008 17:21:30 11.9 C 8.26 g/m*3 11.9 C 0 km/h
43 04-11-2008 17:46:30 11.1 C 8.16 g/m*3 11.1 C 0 km/h
44 04-11-2008 18:11:30 10.9 C 8.26 g/m*3 10.9 C 0 km/h
45 04-11-2008 18:36:30 10.8 C 8.4 g/m*3 10.8 C 0 km/h
46 04-11-2008 19:01:30 10.6 C 8.39 g/m*3 10.6 C 0 km/h
47 04-11-2008 19:26:30 10.4 C 8.29 g/m*3 10.4 C 0 km/h
48 04-11-2008 19:51:30 10.2 C 8.28 g/m*3 10.2 C 0 km/h
49 04-11-2008 20:16:30 10.1 C 8.32 g/m*3 10.1 C 0 km/h
50 04-11-2008 20:41:30 9.7 C 8.2 g/m*3 9.7 C 0 km/h
Sensor: Nr:Datum:Temp:Abs-Feuchte:Windchill:Wind:
Aussen-T/F 51 04-11-2008 21:06:30 9.3 C 8.09 g/m*3 9.3 C 0 km/h
52 04-11-2008 21:31:30 9.1 C 7.99 g/m*3 9.1 C 0 km/h
53 04-11-2008 21:56:30 9.1 C 8.07 g/m*3 9.1 C 0 km/h
54 04-11-2008 22:21:30 9.1 C 8.16 g/m*3 9.1 C 0 km/h
55 04-11-2008 22:46:30 8.7 C 8.04 g/m*3 8.7 C 0 km/h
56 04-11-2008 23:11:31 8.4 C 7.89 g/m*3 8.4 C 0 km/h
57 04-11-2008 23:36:31 9 C 8.2 g/m*3 9 C 0 km/h
58 05-11-2008 00:01:31 8.7 C 8.04 g/m*3 8.7 C 0 km/h
59 05-11-2008 00:26:31 8.7 C 8.04 g/m*3 8.7 C 0 km/h
60 05-11-2008 00:51:31 8.6 C 7.99 g/m*3 8.6 C 0 km/h
61 05-11-2008 01:16:31 8.7 C 8.04 g/m*3 8.7 C 0 km/h
62 05-11-2008 01:41:31 8.8 C 7.92 g/m*3 8.8 C 0 km/h
63 05-11-2008 02:06:31 8.7 C 7.7 g/m*3 8.7 C 0 km/h
64 05-11-2008 02:31:31 8.5 C 7.6 g/m*3 8.5 C 0 km/h
65 05-11-2008 02:56:31 8.4 C 7.55 g/m*3 8.4 C 0 km/h
66 05-11-2008 03:21:31 8.3 C 7.5 g/m*3 8.3 C 0 km/h
67 05-11-2008 03:46:31 8.4 C 7.55 g/m*3 8.4 C 0 km/h
68 05-11-2008 04:11:31 8.2 C 7.37 g/m*3 8.2 C 0 km/h
69 05-11-2008 04:36:31 7.9 C 7.39 g/m*3 7.9 C 0 km/h
70 05-11-2008 05:01:31 8.2 C 7.45 g/m*3 8.2 C 0 km/h
71 05-11-2008 05:26:31 8.4 C 7.55 g/m*3 8.4 C 0 km/h
72 05-11-2008 05:51:31 8.4 C 7.55 g/m*3 8.4 C 0 km/h
73 05-11-2008 06:16:31 8.4 C 7.38 g/m*3 8.4 C 0 km/h
74 05-11-2008 06:41:31 8.5 C 7.34 g/m*3 8.5 C 0 km/h
75 05-11-2008 07:06:31 8.4 C 7.21 g/m*3 8.4 C 0 km/h
Sensor: Nr:Datum:Temp:Abs-Feuchte:Windchill:Wind:
Aussen-T/F 76 05-11-2008 07:31:32 8.4 C 7.21 g/m*3 8.4 C 0 km/h
77 05-11-2008 07:56:32 8.5 C 7.26 g/m*3 8.5 C 0 km/h
78 05-11-2008 08:21:32 8.7 C 7.35 g/m*3 8.7 C 0 km/h
79 05-11-2008 08:46:32 8.9 C 7.45 g/m*3 8.9 C 0 km/h
80 05-11-2008 09:11:32 9.2 C 7.5 g/m*3 9.2 C 0 km/h
81 05-11-2008 09:36:32 9.8 C 7.79 g/m*3 9.8 C 0 km/h
82 05-11-2008 10:01:32 10 C 7.42 g/m*3 10 C 0 km/h
83 05-11-2008 10:26:32 10.7 C 7.46 g/m*3 10.7 C 0 km/h
84 05-11-2008 10:51:32 10.7 C 7.46 g/m*3 10.7 C 0 km/h
85 05-11-2008 11:16:32 10.9 C 7.46 g/m*3 10.9 C 0 km/h
86 05-11-2008 11:41:32 11 C 7.51 g/m*3 11 C 0 km/h
87 05-11-2008 12:06:32 11.1 C 7.45 g/m*3 11.1 C 0 km/h
88 05-11-2008 12:31:32 11 C 7.41 g/m*3 11 C 0 km/h
89 05-11-2008 12:56:32 10.8 C 7.51 g/m*3 10.8 C 0 km/h
90 05-11-2008 13:21:32 11 C 7.61 g/m*3 11 C 0 km/h
91 05-11-2008 13:46:32 11.2 C 7.6 g/m*3 11.2 C 0 km/h
92 05-11-2008 14:11:32 11.2 C 7.7 g/m*3 11.2 C 0 km/h
93 05-11-2008 14:36:32 11.4 C 7.8 g/m*3 11.4 C 0 km/h
94 05-11-2008 15:01:32 11.5 C 7.64 g/m*3 11.5 C 0 km/h
95 05-11-2008 15:26:33 11.5 C 7.64 g/m*3 11.5 C 0 km/h
96 05-11-2008 15:51:33 11.4 C 7.7 g/m*3 11.4 C 0 km/h
97 05-11-2008 16:16:33 11.1 C 7.66 g/m*3 11.1 C 0 km/h
98 05-11-2008 16:41:33 10.9 C 7.76 g/m*3 10.9 C 0 km/h
99 05-11-2008 17:06:33 10.7 C 7.66 g/m*3 10.7 C 0 km/h
100 05-11-2008 17:31:33 10.5 C 7.66 g/m*3 10.5 C 0 km/h
Sensor: Nr:Datum:Temp:Abs-Feuchte:Windchill:Wind:
Aussen-T/F 101 05-11-2008 17:56:33 10.5 C 7.76 g/m*3 10.5 C 0 km/h
102 05-11-2008 18:21:33 10.4 C 7.81 g/m*3 10.4 C 0 km/h
103 05-11-2008 18:46:33 10.4 C 7.81 g/m*3 10.4 C 0 km/h
104 05-11-2008 19:11:33 10.4 C 7.9 g/m*3 10.4 C 0 km/h
105 05-11-2008 19:36:33 10.3 C 7.85 g/m*3 10.3 C 0 km/h
106 05-11-2008 20:01:33 10.3 C 7.85 g/m*3 10.3 C 0 km/h
107 05-11-2008 20:26:33 10.3 C 7.95 g/m*3 10.3 C 0 km/h
108 05-11-2008 20:51:33 10.2 C 7.9 g/m*3 10.2 C 0 km/h
109 05-11-2008 21:16:33 10.2 C 7.9 g/m*3 10.2 C 0 km/h
110 05-11-2008 21:41:33 10.2 C 7.9 g/m*3 10.2 C 0 km/h
111 05-11-2008 22:06:33 10.2 C 7.9 g/m*3 10.2 C 0 km/h
112 05-11-2008 22:31:33 10.2 C 7.99 g/m*3 10.2 C 0 km/h
113 05-11-2008 22:56:33 10.2 C 7.99 g/m*3 10.2 C 0 km/h
114 05-11-2008 23:21:34 10.2 C 7.99 g/m*3 10.2 C 0 km/h
115 05-11-2008 23:46:34 10 C 7.99 g/m*3 10 C 0 km/h
116 06-11-2008 00:11:34 10 C 7.99 g/m*3 10 C 0 km/h
117 06-11-2008 00:36:34 10 C 7.99 g/m*3 10 C 0 km/h
118 06-11-2008 01:01:34 10 C 7.99 g/m*3 10 C 0 km/h
119 06-11-2008 01:26:34 9.9 C 8.12 g/m*3 9.9 C 0 km/h
120 06-11-2008 01:51:34 9.8 C 8.07 g/m*3 9.8 C 0 km/h
121 06-11-2008 02:16:34 9.8 C 7.98 g/m*3 9.8 C 0 km/h
122 06-11-2008 02:41:34 9.7 C 7.84 g/m*3 9.7 C 0 km/h
123 06-11-2008 03:06:34 9.5 C 7.74 g/m*3 9.5 C 0 km/h
124 06-11-2008 03:31:34 9.3 C 7.73 g/m*3 9.3 C 0 km/h
125 06-11-2008 03:56:34 8.9 C 7.62 g/m*3 8.9 C 0 km/h
Sensor: Nr:Datum:Temp:Abs-Feuchte:Windchill:Wind:
Aussen-T/F 126 06-11-2008 04:21:34 8.5 C 7.43 g/m*3 8.5 C 0 km/h
127 06-11-2008 04:46:34 8.6 C 7.48 g/m*3 8.6 C 0 km/h
128 06-11-2008 05:11:34 8.9 C 7.71 g/m*3 8.9 C 0 km/h
129 06-11-2008 05:36:34 9 C 7.58 g/m*3 9 C 0 km/h
130 06-11-2008 06:01:34 9 C 7.58 g/m*3 9 C 0 km/h
131 06-11-2008 06:26:34 9.3 C 7.64 g/m*3 9.3 C 0 km/h
132 06-11-2008 06:51:34 9.3 C 7.46 g/m*3 9.3 C 0 km/h
133 06-11-2008 07:16:34 9.3 C 7.46 g/m*3 9.3 C 0 km/h
134 06-11-2008 07:41:35 9.1 C 7.36 g/m*3 9.1 C 0 km/h
135 06-11-2008 08:06:35 9.4 C 7.51 g/m*3 9.4 C 0 km/h
136 06-11-2008 08:31:35 9.7 C 7.56 g/m*3 9.7 C 0 km/h
137 06-11-2008 08:56:35 10 C 7.42 g/m*3 10 C 0 km/h
138 06-11-2008 09:21:35 10.3 C 7.47 g/m*3 10.3 C 0 km/h
139 06-11-2008 09:46:35 10.6 C 7.12 g/m*3 10.6 C 0 km/h
140 06-11-2008 10:11:35 11 C 7.01 g/m*3 11 C 0 km/h
141 06-11-2008 10:36:35 11.3 C 7.04 g/m*3 11.3 C 0 km/h
142 06-11-2008 11:01:35 12.1 C 7.18 g/m*3 12.1 C 0 km/h
143 06-11-2008 11:26:35 12.4 C 7.1 g/m*3 12.4 C 0 km/h
144 06-11-2008 11:51:35 12.2 C 6.91 g/m*3 12.2 C 0 km/h
145 06-11-2008 12:16:35 12.2 C 6.91 g/m*3 12.2 C 0 km/h
146 06-11-2008 12:41:35 12.1 C 6.97 g/m*3 12.1 C 0 km/h
147 06-11-2008 13:06:35 12.6 C 7.08 g/m*3 12.6 C 0 km/h
148 06-11-2008 13:31:35 12.7 C 7.01 g/m*3 12.7 C 0 km/h
149 06-11-2008 13:56:35 12.4 C 7.1 g/m*3 12.4 C 0 km/h
150 06-11-2008 14:21:35 13 C 7.14 g/m*3 13 C 0 km/h
Sensor: Nr:Datum:Temp:Abs-Feuchte:Windchill:Wind:
Aussen-T/F 151 06-11-2008 14:46:35 13.1 C 6.96 g/m*3 13.1 C 0 km/h
152 06-11-2008 15:11:35 13 C 6.92 g/m*3 13 C 0 km/h
153 06-11-2008 15:36:36 12.6 C 6.97 g/m*3 12.6 C 0 km/h
154 06-11-2008 16:01:36 12.4 C 6.99 g/m*3 12.4 C 0 km/h
155 06-11-2008 16:26:36 11.8 C 6.95 g/m*3 11.8 C 0 km/h
156 06-11-2008 16:51:36 11.4 C 6.98 g/m*3 11.4 C 0 km/h
157 06-11-2008 17:16:36 11.1 C 6.95 g/m*3 11.1 C 0 km/h
158 06-11-2008 17:41:36 10.9 C 7.06 g/m*3 10.9 C 0 km/h
159 06-11-2008 18:06:36 10.1 C 6.9 g/m*3 10.1 C 0 km/h
160 06-11-2008 18:31:36 10.1 C 7 g/m*3 10.1 C 0 km/h
161 06-11-2008 18:56:36 10.2 C 7.04 g/m*3 10.2 C 0 km/h
162 06-11-2008 19:21:36 10.4 C 7.13 g/m*3 10.4 C 0 km/h
163 06-11-2008 19:46:36 10.3 C 7.09 g/m*3 10.3 C 0 km/h
164 06-11-2008 20:11:36 10.2 C 7.14 g/m*3 10.2 C 0 km/h
165 06-11-2008 20:36:36 10.3 C 7.28 g/m*3 10.3 C 0 km/h
166 06-11-2008 21:01:36 10.2 C 7.23 g/m*3 10.2 C 0 km/h
167 06-11-2008 21:26:36 10.4 C 7.23 g/m*3 10.4 C 0 km/h
168 06-11-2008 21:51:36 10.3 C 7.18 g/m*3 10.3 C 0 km/h
169 06-11-2008 22:16:36 10.2 C 7.33 g/m*3 10.2 C 0 km/h
170 06-11-2008 22:41:36 10.2 C 7.33 g/m*3 10.2 C 0 km/h
171 06-11-2008 23:06:36 10.1 C 7.28 g/m*3 10.1 C 0 km/h
172 06-11-2008 23:31:37 10.2 C 7.23 g/m*3 10.2 C 0 km/h
173 06-11-2008 23:56:37 10.2 C 7.23 g/m*3 10.2 C 0 km/h
174 07-11-2008 00:21:37 10.1 C 7.19 g/m*3 10.1 C 0 km/h
175 07-11-2008 00:46:37 10.1 C 7.19 g/m*3 10.1 C 0 km/h
Sensor: Nr:Datum:Temp:Abs-Feuchte:Windchill:Wind:
Aussen-T/F 176 07-11-2008 01:11:37 10 C 7.24 g/m*3 10 C 0 km/h
177 07-11-2008 01:36:37 10 C 7.24 g/m*3 10 C 0 km/h
178 07-11-2008 02:01:37 10 C 7.14 g/m*3 10 C 0 km/h
179 07-11-2008 02:26:37 10 C 7.14 g/m*3 10 C 0 km/h
180 07-11-2008 02:51:37 9.9 C 7.28 g/m*3 9.9 C 0 km/h
181 07-11-2008 03:16:37 9.9 C 7.19 g/m*3 9.9 C 0 km/h
182 07-11-2008 03:41:37 10 C 7.14 g/m*3 10 C 0 km/h
183 07-11-2008 04:06:37 10.2 C 7.14 g/m*3 10.2 C 0 km/h
184 07-11-2008 04:31:37 10.1 C 7.19 g/m*3 10.1 C 0 km/h
185 07-11-2008 04:56:37 10.3 C 7.28 g/m*3 10.3 C 0 km/h
186 07-11-2008 05:21:37 10.3 C 7.28 g/m*3 10.3 C 0 km/h
187 07-11-2008 05:46:37 10.2 C 7.23 g/m*3 10.2 C 0 km/h
188 07-11-2008 06:11:37 10.1 C 7.19 g/m*3 10.1 C 0 km/h
189 07-11-2008 06:36:37 10 C 7.14 g/m*3 10 C 0 km/h
190 07-11-2008 07:01:37 10.1 C 7.09 g/m*3 10.1 C 0 km/h
191 07-11-2008 07:26:38 10.1 C 7 g/m*3 10.1 C 0 km/h
192 07-11-2008 07:51:38 9.8 C 7.05 g/m*3 9.8 C 0 km/h
193 07-11-2008 08:16:38 9.6 C 7.15 g/m*3 9.6 C 0 km/h
194 07-11-2008 08:41:38 10.3 C 6.99 g/m*3 10.3 C 0 km/h
195 07-11-2008 09:06:38 10.8 C 7.02 g/m*3 10.8 C 0 km/h
196 07-11-2008 09:31:38 11 C 6.91 g/m*3 11 C 0 km/h
197 07-11-2008 09:56:38 11.1 C 6.95 g/m*3 11.1 C 0 km/h
198 07-11-2008 10:21:38 11.3 C 7.04 g/m*3 11.3 C 0 km/h
199 07-11-2008 10:46:38 11.2 C 6.89 g/m*3 11.2 C 0 km/h
200 07-11-2008 11:11:38 11.6 C 6.96 g/m*3 11.6 C 0 km/h
Sensor: Nr:Datum:Temp:Abs-Feuchte:Windchill:Wind:
Aussen-T/F 201 07-11-2008 11:36:38 12.2 C 6.91 g/m*3 12.2 C 0 km/h
202 07-11-2008 12:01:38 12.7 C 6.9 g/m*3 12.7 C 0 km/h
203 07-11-2008 12:26:38 13.1 C 6.85 g/m*3 13.1 C 0 km/h
204 07-11-2008 12:51:38 13.2 C 6.77 g/m*3 13.2 C 0 km/h
205 07-11-2008 13:16:38 13.8 C 6.91 g/m*3 13.8 C 0 km/h
206 07-11-2008 13:41:38 13.6 C 6.71 g/m*3 13.6 C 0 km/h
207 07-11-2008 14:06:38 13.8 C 7.03 g/m*3 13.8 C 0 km/h
208 07-11-2008 14:31:38 14.5 C 7.09 g/m*3 14.5 C 0 km/h
209 07-11-2008 14:56:38 14 C 7 g/m*3 14 C 0 km/h
210 07-11-2008 15:21:38 13.8 C 7.27 g/m*3 13.8 C 0 km/h
211 07-11-2008 15:46:39 13.5 C 7.37 g/m*3 13.5 C 0 km/h
212 07-11-2008 16:11:39 13.1 C 7.3 g/m*3 13.1 C 0 km/h
213 07-11-2008 16:36:39 12.7 C 7.57 g/m*3 12.7 C 0 km/h
214 07-11-2008 17:01:39 12.4 C 7.43 g/m*3 12.4 C 0 km/h
215 07-11-2008 17:26:39 11.8 C 7.26 g/m*3 11.8 C 0 km/h
216 07-11-2008 17:51:39 11.1 C 7.15 g/m*3 11.1 C 0 km/h
217 07-11-2008 18:16:39 10.4 C 7.23 g/m*3 10.4 C 0 km/h
218 07-11-2008 18:41:39 10.4 C 7.42 g/m*3 10.4 C 0 km/h
219 07-11-2008 19:06:39 10.7 C 7.56 g/m*3 10.7 C 0 km/h
220 07-11-2008 19:31:39 10.6 C 7.32 g/m*3 10.6 C 0 km/h
221 07-11-2008 19:56:39 10 C 7.33 g/m*3 10 C 0 km/h
222 07-11-2008 20:21:39 9.9 C 7.56 g/m*3 9.9 C 0 km/h
223 07-11-2008 20:46:39 9.5 C 7.37 g/m*3 9.5 C 0 km/h
224 07-11-2008 21:11:39 9.1 C 7.36 g/m*3 9.1 C 0 km/h
225 07-11-2008 21:36:39 8.7 C 7.44 g/m*3 8.7 C 0 km/h
Sensor: Nr:Datum:Temp:Abs-Feuchte:Windchill:Wind:
Aussen-T/F 226 07-11-2008 22:01:39 8.4 C 7.38 g/m*3 8.4 C 0 km/h
227 07-11-2008 22:26:39 7.9 C 7.31 g/m*3 7.9 C 0 km/h
228 07-11-2008 22:51:39 7.5 C 7.12 g/m*3 7.5 C 0 km/h
229 07-11-2008 23:16:39 7.3 C 7.03 g/m*3 7.3 C 0 km/h
230 07-11-2008 23:41:40 7.3 C 7.11 g/m*3 7.3 C 0 km/h
231 08-11-2008 00:06:40 7.3 C 7.19 g/m*3 7.3 C 0 km/h
232 08-11-2008 00:31:40 6.9 C 7.08 g/m*3 6.9 C 0 km/h
233 08-11-2008 00:56:40 7.1 C 7.18 g/m*3 7.1 C 0 km/h
234 08-11-2008 01:21:40 7 C 7.13 g/m*3 7 C 0 km/h
235 08-11-2008 01:46:40 7.2 C 7.3 g/m*3 7.2 C 0 km/h
236 08-11-2008 02:11:40 7.3 C 7.35 g/m*3 7.3 C 0 km/h
237 08-11-2008 02:36:40 7.5 C 7.44 g/m*3 7.5 C 0 km/h
238 08-11-2008 03:01:40 7.8 C 7.59 g/m*3 7.8 C 0 km/h
239 08-11-2008 03:26:40 7.9 C 7.56 g/m*3 7.9 C 0 km/h
240 08-11-2008 03:51:40 8.1 C 7.57 g/m*3 8.1 C 0 km/h
241 08-11-2008 04:16:40 8.2 C 7.62 g/m*3 8.2 C 0 km/h
242 08-11-2008 04:41:40 8.3 C 7.67 g/m*3 8.3 C 0 km/h
243 08-11-2008 05:06:40 8.3 C 7.59 g/m*3 8.3 C 0 km/h
244 08-11-2008 05:31:40 8 C 7.44 g/m*3 8 C 0 km/h
245 08-11-2008 05:56:40 8.6 C 7.82 g/m*3 8.6 C 0 km/h
246 08-11-2008 06:21:40 8.6 C 7.65 g/m*3 8.6 C 0 km/h
247 08-11-2008 06:46:40 8.5 C 7.6 g/m*3 8.5 C 0 km/h
248 08-11-2008 07:11:40 8.5 C 7.77 g/m*3 8.5 C 0 km/h
249 08-11-2008 07:36:41 8 C 7.52 g/m*3 8 C 0 km/h
250 08-11-2008 08:01:41 7.9 C 7.64 g/m*3 7.9 C 0 km/h
Sensor: Nr:Datum:Temp:Abs-Feuchte:Windchill:Wind:
Aussen-T/F 251 08-11-2008 08:26:41 7.3 C 7.27 g/m*3 7.3 C 0 km/h
252 08-11-2008 08:51:41 7.2 C 7.3 g/m*3 7.2 C 0 km/h
253 08-11-2008 09:16:41 7.6 C 7.57 g/m*3 7.6 C 0 km/h
254 08-11-2008 09:41:41 8.2 C 7.87 g/m*3 8.2 C 0 km/h
255 08-11-2008 10:06:41 8.7 C 8.13 g/m*3 8.7 C 0 km/h
256 08-11-2008 10:31:41 8.9 C 7.88 g/m*3 8.9 C 0 km/h
257 08-11-2008 10:56:41 9.3 C 7.28 g/m*3 9.3 C 0 km/h
258 08-11-2008 11:21:41 9.7 C 6.36 g/m*3 9.7 C 0 km/h
259 08-11-2008 11:46:41 10.3 C 6.03 g/m*3 10.3 C 0 km/h
260 08-11-2008 12:11:41 10.9 C 5.97 g/m*3 10.9 C 0 km/h
261 08-11-2008 12:36:41 11.7 C 5.86 g/m*3 11.7 C 0 km/h
262 08-11-2008 13:01:41 12.2 C 5.4 g/m*3 12.2 C 0 km/h
263 08-11-2008 13:26:41 12.4 C 5.14 g/m*3 12.4 C 0 km/h
264 08-11-2008 13:51:01 12 C 5.33 g/m*3 12 C 0 km/h
265 08-11-2008 14:16:01 11.9 C 5.51 g/m*3 11.9 C 0 km/h
266 08-11-2008 14:41:01 12 C 5.44 g/m*3 12 C 0 km/h
267 08-11-2008 15:06:02 11.8 C 5.79 g/m*3 11.8 C 0 km/h
268 08-11-2008 15:31:02 12 C 5.86 g/m*3 12 C 0 km/h
269 08-11-2008 15:56:02 11.2 C 5.98 g/m*3 11.2 C 0 km/h
270 08-11-2008 16:21:02 10.2 C 5.8 g/m*3 10.2 C 0 km/h
271 08-11-2008 16:46:02 9.5 C 6.01 g/m*3 9.5 C 0 km/h
272 08-11-2008 17:11:02 8.8 C 6.09 g/m*3 8.8 C 0 km/h
273 08-11-2008 17:36:02 8.2 C 6.03 g/m*3 8.2 C 0 km/h
274 08-11-2008 18:01:02 7.7 C 6.08 g/m*3 7.7 C 0 km/h
275 08-11-2008 18:26:01 7.4 C 6.04 g/m*3 7.4 C 0 km/h
Sensor: Nr:Datum:Temp:Abs-Feuchte:Windchill:Wind:
Aussen-T/F 276 08-11-2008 18:51:01 7.2 C 6.12 g/m*3 7.2 C 0 km/h
277 08-11-2008 19:16:02 6.8 C 6.12 g/m*3 6.8 C 0 km/h
278 08-11-2008 19:41:02 6.5 C 6.15 g/m*3 6.5 C 0 km/h
279 08-11-2008 20:06:02 6.1 C 5.99 g/m*3 6.1 C 0 km/h
280 08-11-2008 20:31:02 5.8 C 6.02 g/m*3 5.8 C 0 km/h
281 08-11-2008 20:56:02 5.6 C 6.08 g/m*3 5.6 C 0 km/h
282 08-11-2008 21:21:02 5.3 C 5.96 g/m*3 5.3 C 0 km/h
283 08-11-2008 21:46:02 5.2 C 6.06 g/m*3 5.2 C 0 km/h
284 08-11-2008 22:11:03 5.1 C 6.02 g/m*3 5.1 C 0 km/h
285 08-11-2008 22:36:03 4.7 C 6 g/m*3 4.7 C 0 km/h
286 08-11-2008 23:01:02 4.9 C 6.14 g/m*3 4.9 C 0 km/h
287 08-11-2008 23:26:02 5.3 C 6.38 g/m*3 5.3 C 0 km/h
288 08-11-2008 23:50:02 5.8 C 6.66 g/m*3 5.8 C 0 km/h
289 09-11-2008 00:02:03 6.4 C 6.85 g/m*3 6.4 C 0 km/h
290 09-11-2008 00:14:03 6.7 C 6.84 g/m*3 6.7 C 0 km/h
291 09-11-2008 00:26:03 6.7 C 6.76 g/m*3 6.7 C 0 km/h
292 09-11-2008 00:38:03 7 C 6.74 g/m*3 7 C 0 km/h
293 09-11-2008 00:50:02 7 C 6.59 g/m*3 7 C 0 km/h
294 09-11-2008 01:02:03 6.6 C 6.42 g/m*3 6.6 C 0 km/h
295 09-11-2008 01:14:03 6.7 C 6.53 g/m*3 6.7 C 0 km/h
296 09-11-2008 01:26:02 6.5 C 6.37 g/m*3 6.5 C 0 km/h
297 09-11-2008 01:38:03 6.5 C 6.45 g/m*3 6.5 C 0 km/h
298 09-11-2008 01:50:02 6.4 C 6.41 g/m*3 6.4 C 0 km/h
299 09-11-2008 02:02:01 7.1 C 6.63 g/m*3 7.1 C 0 km/h
300 09-11-2008 02:14:01 7.5 C 6.56 g/m*3 7.5 C 0 km/h
Sensor: Nr:Datum:Temp:Abs-Feuchte:Windchill:Wind:
Aussen-T/F 301 09-11-2008 02:26:02 7.3 C 6.4 g/m*3 7.3 C 0 km/h
302 09-11-2008 02:38:01 7.6 C 6.53 g/m*3 7.6 C 0 km/h
303 09-11-2008 02:50:01 7.5 C 6.32 g/m*3 7.5 C 0 km/h
304 09-11-2008 03:02:01 7.7 C 6.49 g/m*3 7.7 C 0 km/h
305 09-11-2008 03:14:02 8 C 6.45 g/m*3 8 C 0 km/h
306 09-11-2008 03:26:02 8 C 6.45 g/m*3 8 C 0 km/h
307 09-11-2008 03:38:01 8.2 C 6.53 g/m*3 8.2 C 0 km/h
308 09-11-2008 03:50:01 8.8 C 6.61 g/m*3 8.8 C 0 km/h
309 09-11-2008 04:02:01 9.3 C 6.56 g/m*3 9.3 C 0 km/h
310 09-11-2008 04:14:01 9.4 C 6.51 g/m*3 9.4 C 0 km/h
311 09-11-2008 04:26:01 9.6 C 6.5 g/m*3 9.6 C 0 km/h
312 09-11-2008 04:38:01 9.3 C 6.47 g/m*3 9.3 C 0 km/h
313 09-11-2008 04:50:02 9.3 C 6.56 g/m*3 9.3 C 0 km/h
314 09-11-2008 05:02:01 9.2 C 6.52 g/m*3 9.2 C 0 km/h
315 09-11-2008 05:14:01 9.6 C 6.6 g/m*3 9.6 C 0 km/h
316 09-11-2008 05:26:02 9.7 C 6.64 g/m*3 9.7 C 0 km/h
317 09-11-2008 05:38:01 9.7 C 6.64 g/m*3 9.7 C 0 km/h
318 09-11-2008 05:50:02 9.6 C 6.6 g/m*3 9.6 C 0 km/h
319 09-11-2008 06:02:01 9.6 C 6.69 g/m*3 9.6 C 0 km/h
320 09-11-2008 06:14:01 9.6 C 6.6 g/m*3 9.6 C 0 km/h
321 09-11-2008 06:26:02 9.8 C 6.68 g/m*3 9.8 C 0 km/h
322 09-11-2008 06:38:01 9.7 C 6.64 g/m*3 9.7 C 0 km/h
323 09-11-2008 06:50:02 9.7 C 6.64 g/m*3 9.7 C 0 km/h
324 09-11-2008 07:02:01 9.9 C 6.82 g/m*3 9.9 C 0 km/h
325 09-11-2008 07:14:01 10 C 6.77 g/m*3 10 C 0 km/h
Sensor: Nr:Datum:Temp:Abs-Feuchte:Windchill:Wind:
Aussen-T/F 326 09-11-2008 07:26:02 9.8 C 6.87 g/m*3 9.8 C 0 km/h
327 09-11-2008 07:38:01 9.4 C 7.15 g/m*3 9.4 C 0 km/h
328 09-11-2008 07:50:01 9.2 C 7.41 g/m*3 9.2 C 0 km/h
329 09-11-2008 08:02:01 9.3 C 7.64 g/m*3 9.3 C 0 km/h
330 09-11-2008 08:14:01 9.1 C 7.72 g/m*3 9.1 C 0 km/h
331 09-11-2008 08:26:01 9.3 C 7.82 g/m*3 9.3 C 0 km/h
332 09-11-2008 08:38:01 9.4 C 7.96 g/m*3 9.4 C 0 km/h
333 09-11-2008 08:50:01 9.4 C 7.96 g/m*3 9.4 C 0 km/h
334 09-11-2008 09:02:02 9.6 C 8.15 g/m*3 9.6 C 0 km/h
335 09-11-2008 09:14:02 9.6 C 8.15 g/m*3 9.6 C 0 km/h
336 09-11-2008 09:26:01 9.7 C 8.2 g/m*3 9.7 C 0 km/h
337 09-11-2008 09:38:01 9.7 C 8.2 g/m*3 9.7 C 0 km/h
338 09-11-2008 09:50:01 9.8 C 8.35 g/m*3 9.8 C 0 km/h
339 09-11-2008 10:02:02 9.7 C 8.3 g/m*3 9.7 C 0 km/h
340 09-11-2008 10:14:02 9.7 C 8.3 g/m*3 9.7 C 0 km/h
341 09-11-2008 10:26:01 9.7 C 8.39 g/m*3 9.7 C 0 km/h
342 09-11-2008 10:38:02 9.8 C 8.44 g/m*3 9.8 C 0 km/h
343 09-11-2008 10:50:01 9.8 C 8.54 g/m*3 9.8 C 0 km/h
344 09-11-2008 11:02:02 9.8 C 8.54 g/m*3 9.8 C 0 km/h
345 09-11-2008 11:14:02 9.9 C 8.59 g/m*3 9.9 C 0 km/h
346 09-11-2008 11:26:01 10.1 C 8.7 g/m*3 10.1 C 0 km/h
347 09-11-2008 11:38:02 10.3 C 8.81 g/m*3 10.3 C 0 km/h
348 09-11-2008 11:50:02 10.3 C 8.81 g/m*3 10.3 C 0 km/h
349 09-11-2008 12:02:02 10.4 C 8.87 g/m*3 10.4 C 0 km/h
350 09-11-2008 12:14:02 10.7 C 9.04 g/m*3 10.7 C 0 km/h
Sensor: Nr:Datum:Temp:Abs-Feuchte:Windchill:Wind:
Aussen-T/F 351 09-11-2008 12:26:02 11 C 9.11 g/m*3 11 C 0 km/h
352 09-11-2008 12:38:02 10.8 C 8.99 g/m*3 10.8 C 0 km/h
353 09-11-2008 12:50:02 10.9 C 9.05 g/m*3 10.9 C 0 km/h
354 09-11-2008 13:02:02 10.6 C 8.69 g/m*3 10.6 C 0 km/h
355 09-11-2008 13:14:02 10.5 C 8.44 g/m*3 10.5 C 0 km/h
356 09-11-2008 13:26:02 10.6 C 8.39 g/m*3 10.6 C 0 km/h
357 09-11-2008 13:38:02 10.3 C 8.24 g/m*3 10.3 C 0 km/h
358 09-11-2008 13:50:02 9.8 C 7.61 g/m*3 9.8 C 0 km/h
359 09-11-2008 14:02:02 9.5 C 7.1 g/m*3 9.5 C 0 km/h
360 09-11-2008 14:14:02 9.7 C 7.19 g/m*3 9.7 C 0 km/h
361 09-11-2008 14:26:01 9.5 C 7.28 g/m*3 9.5 C 0 km/h
362 09-11-2008 14:38:02 9.6 C 7.51 g/m*3 9.6 C 0 km/h
363 09-11-2008 14:50:01 9.7 C 7.56 g/m*3 9.7 C 0 km/h
364 09-11-2008 15:02:01 9.8 C 7.24 g/m*3 9.8 C 0 km/h
365 09-11-2008 15:14:01 10.1 C 6.9 g/m*3 10.1 C 0 km/h
366 09-11-2008 15:26:02 10 C 6.95 g/m*3 10 C 0 km/h
367 09-11-2008 15:38:02 10.1 C 6.9 g/m*3 10.1 C 0 km/h
368 09-11-2008 15:50:01 9.9 C 7 g/m*3 9.9 C 0 km/h
369 09-11-2008 16:02:03 9.8 C 7.14 g/m*3 9.8 C 0 km/h
370 09-11-2008 16:14:03 9.6 C 7.15 g/m*3 9.6 C 0 km/h
371 09-11-2008 16:26:01 9.4 C 7.15 g/m*3 9.4 C 0 km/h
372 09-11-2008 16:38:02 9.2 C 7.23 g/m*3 9.2 C 0 km/h
373 09-11-2008 16:50:02 9.1 C 7.19 g/m*3 9.1 C 0 km/h
374 09-11-2008 17:02:02 9.1 C 7.19 g/m*3 9.1 C 0 km/h
375 09-11-2008 17:14:02 9 C 7.14 g/m*3 9 C 0 km/h
Sensor: Nr:Datum:Temp:Abs-Feuchte:Windchill:Wind:
Aussen-T/F 376 09-11-2008 17:26:02 8.8 C 7.22 g/m*3 8.8 C 0 km/h
377 09-11-2008 17:38:03 8.7 C 7.26 g/m*3 8.7 C 0 km/h
378 09-11-2008 17:50:02 8.7 C 7.26 g/m*3 8.7 C 0 km/h
379 09-11-2008 18:02:02 8.6 C 7.22 g/m*3 8.6 C 0 km/h
380 09-11-2008 18:14:02 8.5 C 7 g/m*3 8.5 C 0 km/h
381 09-11-2008 18:26:02 8.1 C 6.82 g/m*3 8.1 C 0 km/h
382 09-11-2008 18:38:02 7.9 C 6.82 g/m*3 7.9 C 0 km/h
383 09-11-2008 18:50:01 7.8 C 6.77 g/m*3 7.8 C 0 km/h
384 09-11-2008 19:02:02 7.6 C 6.69 g/m*3 7.6 C 0 km/h
385 09-11-2008 19:14:02 7.4 C 6.68 g/m*3 7.4 C 0 km/h
386 09-11-2008 19:26:03 7.4 C 6.76 g/m*3 7.4 C 0 km/h
387 09-11-2008 19:38:03 7.3 C 6.72 g/m*3 7.3 C 0 km/h
388 09-11-2008 19:50:02 7.4 C 6.84 g/m*3 7.4 C 0 km/h
389 09-11-2008 20:02:02 7.5 C 6.8 g/m*3 7.5 C 0 km/h
390 09-11-2008 20:14:02 7.4 C 6.76 g/m*3 7.4 C 0 km/h
391 09-11-2008 20:26:01 7.6 C 6.93 g/m*3 7.6 C 0 km/h
392 09-11-2008 20:38:02 7.4 C 6.76 g/m*3 7.4 C 0 km/h
393 09-11-2008 20:50:02 7.4 C 6.92 g/m*3 7.4 C 0 km/h
394 09-11-2008 21:02:01 7.6 C 7.01 g/m*3 7.6 C 0 km/h
395 09-11-2008 21:14:01 7.7 C 7.14 g/m*3 7.7 C 0 km/h
396 09-11-2008 21:26:02 7.9 C 7.23 g/m*3 7.9 C 0 km/h
397 09-11-2008 21:38:01 7.9 C 7.23 g/m*3 7.9 C 0 km/h
398 09-11-2008 21:50:02 7.9 C 7.31 g/m*3 7.9 C 0 km/h
399 09-11-2008 22:02:01 7.9 C 7.31 g/m*3 7.9 C 0 km/h
400 09-11-2008 22:14:01 7.8 C 7.35 g/m*3 7.8 C 0 km/h
Sensor: Nr:Datum:Temp:Abs-Feuchte:Windchill:Wind:
Aussen-T/F 401 09-11-2008 22:26:02 8 C 7.44 g/m*3 8 C 0 km/h
402 09-11-2008 22:38:01 8.3 C 7.67 g/m*3 8.3 C 0 km/h
403 09-11-2008 22:50:01 8.5 C 7.77 g/m*3 8.5 C 0 km/h
404 09-11-2008 23:02:01 8.5 C 7.77 g/m*3 8.5 C 0 km/h
405 09-11-2008 23:14:01 8.9 C 8.06 g/m*3 8.9 C 0 km/h
406 09-11-2008 23:26:01 9.3 C 8.27 g/m*3 9.3 C 0 km/h
407 09-11-2008 23:38:01 10.1 C 8.7 g/m*3 10.1 C 0 km/h
408 09-11-2008 23:50:01 11.4 C 9.34 g/m*3 11.4 C 0 km/h
409 10-11-2008 00:02:02 12 C 8.95 g/m*3 12 C 0 km/h
410 10-11-2008 00:14:02 12.1 C 8.69 g/m*3 12.1 C 0 km/h
411 10-11-2008 00:26:02 12.3 C 8.58 g/m*3 12.3 C 0 km/h
412 10-11-2008 00:38:02 12.3 C 8.58 g/m*3 12.3 C 0 km/h
413 10-11-2008 00:50:01 12.6 C 8.41 g/m*3 12.6 C 0 km/h
414 10-11-2008 01:02:02 12.9 C 8.34 g/m*3 12.9 C 0 km/h
415 10-11-2008 01:14:02 13 C 8.05 g/m*3 13 C 0 km/h
416 10-11-2008 01:26:01 13 C 7.94 g/m*3 13 C 0 km/h
417 10-11-2008 01:38:02 13 C 7.83 g/m*3 13 C 0 km/h
418 10-11-2008 01:50:02 13.1 C 7.53 g/m*3 13.1 C 0 km/h
419 10-11-2008 02:02:01 13 C 7.48 g/m*3 13 C 0 km/h
420 10-11-2008 02:14:01 13 C 7.48 g/m*3 13 C 0 km/h
421 10-11-2008 02:26:02 12.9 C 7.55 g/m*3 12.9 C 0 km/h
422 10-11-2008 02:38:01 12.5 C 7.81 g/m*3 12.5 C 0 km/h
423 10-11-2008 02:51:05 12 C 7.99 g/m*3 12 C 0 km/h
424 10-11-2008 03:03:05 11.8 C 8.21 g/m*3 11.8 C 0 km/h
425 10-11-2008 03:15:05 11.2 C 8.51 g/m*3 11.2 C 0 km/h
Sensor: Nr:Datum:Temp:Abs-Feuchte:Windchill:Wind:
Aussen-T/F 426 10-11-2008 03:27:05 11.1 C 8.66 g/m*3 11.1 C 0 km/h
427 10-11-2008 03:39:02 11.3 C 8.67 g/m*3 11.3 C 0 km/h
428 10-11-2008 03:51:02 11.6 C 8.52 g/m*3 11.6 C 0 km/h
429 10-11-2008 04:03:03 11.8 C 8.31 g/m*3 11.8 C 0 km/h
430 10-11-2008 04:15:02 11.9 C 8.26 g/m*3 11.9 C 0 km/h
431 10-11-2008 04:27:02 12 C 8.21 g/m*3 12 C 0 km/h
432 10-11-2008 04:39:03 12.3 C 8.25 g/m*3 12.3 C 0 km/h
433 10-11-2008 04:51:02 12.5 C 8.14 g/m*3 12.5 C 0 km/h
434 10-11-2008 05:03:02 12.5 C 8.14 g/m*3 12.5 C 0 km/h
435 10-11-2008 05:15:02 12.6 C 8.08 g/m*3 12.6 C 0 km/h
436 10-11-2008 05:27:02 12.8 C 8.06 g/m*3 12.8 C 0 km/h
437 10-11-2008 05:39:02 12.9 C 8 g/m*3 12.9 C 0 km/h
438 10-11-2008 05:51:01 13 C 7.83 g/m*3 13 C 0 km/h
439 10-11-2008 06:03:02 13 C 7.83 g/m*3 13 C 0 km/h
440 10-11-2008 06:15:02 13 C 7.83 g/m*3 13 C 0 km/h
441 10-11-2008 06:27:02 13 C 7.83 g/m*3 13 C 0 km/h
442 10-11-2008 06:39:02 13.1 C 7.76 g/m*3 13.1 C 0 km/h
443 10-11-2008 06:51:02 13 C 7.71 g/m*3 13 C 0 km/h
444 10-11-2008 07:03:02 13.1 C 7.76 g/m*3 13.1 C 0 km/h
445 10-11-2008 07:15:02 13.3 C 7.74 g/m*3 13.3 C 0 km/h
446 10-11-2008 07:27:02 13.2 C 7.69 g/m*3 13.2 C 0 km/h
447 10-11-2008 07:39:02 13.1 C 7.87 g/m*3 13.1 C 0 km/h
448 10-11-2008 07:51:02 12.8 C 8.18 g/m*3 12.8 C 0 km/h
449 10-11-2008 08:03:03 12.7 C 8.24 g/m*3 12.7 C 0 km/h
450 10-11-2008 08:15:02 13 C 8.28 g/m*3 13 C 0 km/h
Sensor: Nr:Datum:Temp:Abs-Feuchte:Windchill:Wind:
Aussen-T/F 451 10-11-2008 08:27:02 13 C 8.28 g/m*3 13 C 0 km/h
452 10-11-2008 08:39:03 12.8 C 8.4 g/m*3 12.8 C 0 km/h
453 10-11-2008 08:51:02 13 C 8.39 g/m*3 13 C 0 km/h
454 10-11-2008 09:03:01 13 C 8.28 g/m*3 13 C 0 km/h
455 10-11-2008 09:15:02 13 C 8.28 g/m*3 13 C 0 km/h
456 10-11-2008 09:27:03 13.2 C 8.27 g/m*3 13.2 C 0 km/h
457 10-11-2008 09:39:01 13.4 C 8.14 g/m*3 13.4 C 0 km/h
458 10-11-2008 09:51:02 13.5 C 8.07 g/m*3 13.5 C 0 km/h
459 10-11-2008 10:03:01 13.7 C 8.05 g/m*3 13.7 C 0 km/h
460 10-11-2008 10:15:02 13.7 C 7.93 g/m*3 13.7 C 0 km/h
461 10-11-2008 10:27:02 13.7 C 7.93 g/m*3 13.7 C 0 km/h
462 10-11-2008 10:39:01 13.8 C 7.98 g/m*3 13.8 C 0 km/h
463 10-11-2008 10:51:01 14 C 7.96 g/m*3 14 C 0 km/h
464 10-11-2008 11:03:01 14 C 8.08 g/m*3 14 C 0 km/h
465 10-11-2008 11:15:01 13.8 C 8.22 g/m*3 13.8 C 0 km/h
466 10-11-2008 11:27:01 14 C 8.2 g/m*3 14 C 0 km/h
467 10-11-2008 11:39:01 14.2 C 8.06 g/m*3 14.2 C 0 km/h
468 10-11-2008 11:51:01 14.4 C 8.03 g/m*3 14.4 C 0 km/h
469 10-11-2008 12:03:02 14.7 C 7.93 g/m*3 14.7 C 0 km/h
470 10-11-2008 12:15:02 15.2 C 7.92 g/m*3 15.2 C 0 km/h
471 10-11-2008 12:27:02 15 C 7.82 g/m*3 15 C 0 km/h
472 10-11-2008 12:39:02 15.1 C 7.87 g/m*3 15.1 C 0 km/h
473 10-11-2008 12:51:02 14.9 C 7.9 g/m*3 14.9 C 0 km/h
474 10-11-2008 13:03:01 14.9 C 7.77 g/m*3 14.9 C 0 km/h
475 10-11-2008 13:15:02 15 C 7.69 g/m*3 15 C 0 km/h
Sensor: Nr:Datum:Temp:Abs-Feuchte:Windchill:Wind:
Aussen-T/F 476 10-11-2008 13:27:02 14.7 C 7.81 g/m*3 14.7 C 0 km/h
477 10-11-2008 13:39:02 14.8 C 7.85 g/m*3 14.8 C 0 km/h
478 10-11-2008 13:51:02 14.9 C 7.77 g/m*3 14.9 C 0 km/h
479 10-11-2008 14:03:02 15.3 C 7.84 g/m*3 15.3 C 0 km/h
480 10-11-2008 14:15:02 15.3 C 7.57 g/m*3 15.3 C 0 km/h
481 10-11-2008 14:27:02 15.1 C 7.74 g/m*3 15.1 C 0 km/h
482 10-11-2008 14:39:02 15 C 7.82 g/m*3 15 C 0 km/h
483 10-11-2008 14:51:02 14.8 C 7.85 g/m*3 14.8 C 0 km/h
484 10-11-2008 15:03:01 14.8 C 7.73 g/m*3 14.8 C 0 km/h
485 10-11-2008 15:15:02 14.8 C 7.73 g/m*3 14.8 C 0 km/h
486 10-11-2008 15:27:03 14.8 C 7.73 g/m*3 14.8 C 0 km/h
487 10-11-2008 15:39:01 14.9 C 7.77 g/m*3 14.9 C 0 km/h
488 10-11-2008 15:51:03 14.8 C 7.73 g/m*3 14.8 C 0 km/h
489 10-11-2008 16:03:02 14.8 C 7.73 g/m*3 14.8 C 0 km/h
490 10-11-2008 16:15:03 14.8 C 7.73 g/m*3 14.8 C 0 km/h
491 10-11-2008 16:27:03 14.7 C 7.81 g/m*3 14.7 C 0 km/h
492 10-11-2008 16:39:02 14.6 C 7.76 g/m*3 14.6 C 0 km/h
493 10-11-2008 16:51:02 14.5 C 7.84 g/m*3 14.5 C 0 km/h
494 10-11-2008 17:03:02 14.5 C 7.71 g/m*3 14.5 C 0 km/h
495 10-11-2008 17:15:02 14.6 C 7.63 g/m*3 14.6 C 0 km/h
496 10-11-2008 17:27:02 14.7 C 7.55 g/m*3 14.7 C 0 km/h
497 10-11-2008 17:39:02 14.7 C 7.55 g/m*3 14.7 C 0 km/h
498 10-11-2008 17:51:01 14.9 C 7.65 g/m*3 14.9 C 0 km/h
499 10-11-2008 18:03:02 15.1 C 7.48 g/m*3 15.1 C 0 km/h
500 10-11-2008 18:15:01 15.2 C 7.4 g/m*3 15.2 C 0 km/h
Sensor: Nr:Datum:Temp:Abs-Feuchte:Windchill:Wind:
Aussen-T/F 501 10-11-2008 18:27:01 15.2 C 7.4 g/m*3 15.2 C 0 km/h
502 10-11-2008 18:39:02 14.9 C 7.39 g/m*3 14.9 C 0 km/h
503 10-11-2008 18:51:02 15.1 C 7.22 g/m*3 15.1 C 0 km/h
504 10-11-2008 19:03:03 15.1 C 7.1 g/m*3 15.1 C 0 km/h
505 10-11-2008 19:15:02 15.2 C 7.14 g/m*3 15.2 C 0 km/h
506 10-11-2008 19:27:02 15 C 7.05 g/m*3 15 C 0 km/h
507 10-11-2008 19:39:03 15.1 C 7.1 g/m*3 15.1 C 0 km/h
508 10-11-2008 19:51:02 15.2 C 7.14 g/m*3 15.2 C 0 km/h
509 10-11-2008 20:03:02 15.1 C 7.22 g/m*3 15.1 C 0 km/h
510 10-11-2008 20:15:02 15.3 C 7.31 g/m*3 15.3 C 0 km/h
511 10-11-2008 20:27:02 15.3 C 7.31 g/m*3 15.3 C 0 km/h
512 10-11-2008 20:39:02 15.3 C 7.31 g/m*3 15.3 C 0 km/h
513 10-11-2008 20:51:02 15.4 C 7.36 g/m*3 15.4 C 0 km/h
514 10-11-2008 21:03:02 15.5 C 7.53 g/m*3 15.5 C 0 km/h
515 10-11-2008 21:15:02 15.5 C 7.53 g/m*3 15.5 C 0 km/h
516 10-11-2008 21:27:02 15.6 C 7.58 g/m*3 15.6 C 0 km/h
517 10-11-2008 21:39:02 15.4 C 7.75 g/m*3 15.4 C 0 km/h
518 10-11-2008 21:51:01 15.2 C 8.05 g/m*3 15.2 C 0 km/h
519 10-11-2008 22:03:02 15.3 C 7.97 g/m*3 15.3 C 0 km/h
520 10-11-2008 22:15:02 15.2 C 8.05 g/m*3 15.2 C 0 km/h
521 10-11-2008 22:27:02 15.5 C 7.93 g/m*3 15.5 C 0 km/h
522 10-11-2008 22:39:02 15.7 C 7.63 g/m*3 15.7 C 0 km/h
523 10-11-2008 22:52:02 15.8 C 7.67 g/m*3 15.8 C 0 km/h
524 10-11-2008 23:04:02 15.8 C 7.54 g/m*3 15.8 C 0 km/h
525 10-11-2008 23:16:02 15.9 C 7.58 g/m*3 15.9 C 0 km/h
Sensor: Nr:Datum:Temp:Abs-Feuchte:Windchill:Wind:
Aussen-T/F 526 10-11-2008 23:28:02 15.8 C 7.54 g/m*3 15.8 C 0 km/h
527 10-11-2008 23:40:02 15.8 C 7.54 g/m*3 15.8 C 0 km/h
528 10-11-2008 23:52:02 16 C 7.49 g/m*3 16 C 0 km/h

Legende:
   Min
   Max


Maximal/Minimal-Werte vom 17.04.2019 - 19.05.2019

Sensor Min Max Avg
Temp
(Aussen-T/F)
2.2 °C
13-05-2019  06:50:00
26.6 °C
24-04-2019  17:05:00
11.51 °C

Die Daten stammen von einer Davis Vantage Pro 2 Wetter-Station und werden unter Linux mit der Software wview2wettercgi und aufbereitet. Alle Angaben erfolgen ohne Gewähr für ihre Vollständigkeit oder Richtigkeit.
Kontakt: Rainer Krienke krienke@uni-koblenz.de . Meine Webseiten an der Uni Koblenz oder privat.
Version: $Revision: 0.78 $